Ana Sayfa
METAR-TAF:

METAR-TAF

Havaalanları :

Puerto Williams, Şili

Enlem: 54-56-00S, Boylam: 067-37-00W, yükseklik: 27 m

Güncel hava durumu gözlemi

Rapor saat 00:00 UTC de 21 saat ve 31 dakika önce yapıldı.
Rüzgar batıdan 14 kt
Sıcaklık 0°C
Nem 86%
Basınç 1000 hPa
Görüş mesafesi 10 km veya daha fazla
4000 ft yükseklikte parçalı bulutlu
5000 ft yükseklikte parçalı bulutlu

METAR: SCGZ 160000Z 27014KT 9999 SCT040 SCT050 M00/M02 Q1000

Saat: 17:31 (21:31 UTC)


TAF: eksik

4.000'den fazla havaalanı için hava durumu gözlemleri ve tahminleri (METAR ve TAF raporları).

Kullanılabilir istasyonlar harita üzerinde sarı ve kırmızı noktalarla gösterilir.

İstasyonun adını görmek için fareyi noktanın üzerinde gezdirin.

Sonrasında hava gözlem ve tahminlerini görmek için tıklayın.

Haritayı değiştirmek için: yaklaştırmak için siyah artı işaretli yeşil düğmeye ve uzaklaştırmak için de eksi işaretli düğmeye hızla tıklayın; bitişik haritalar için yeşil okları kullanın.


METAR-TAF: